NWS Home NWS Lubbock West Texas Mesonet                      Daily Summary For 02/27/2021

Latest   N   C   S   Daily Sum   3hrΔ   24hrΔ   Soil Data 
Site Map   24hr Precip   72hr Precip   Google Plot


Station Time of Last Max Temp Min Temp Max/Min Dew Pt. Max/Min RH 10m Avg Wind 2m Avg Wind Peak Gust @ 33ft (mph) Potential Evapotranspiration
mm/day or in/day
Rain Sum Solar Rad
MJ/m^2
% Clear Day Red Flag
Abernathy 5ENE 11:59 PM 72 58 60 /55 96 / 60 13.4  (SW) 9.1 37.3 mph 238° @ 0139 PM 4.3 or 0.17 0.00 15.3 112.8 274
Adrian 6WSW 11:59 PM 72 58 60 /55 96 / 60 14.2  (SW) 10.5 38.1 mph 244° @ 0245 PM 3.8 or 0.15 0.00 19.7 151.5 181
Aiken 3WSW 11:59 PM 72 58 60 /55 96 / 60 13.3  (SW) 8.9 34.5 mph 208° @ 0311 PM 4.3 or 0.17 0.00 17.1 126.9 234
Amarillo 15NNW 11:59 PM 72 58 60 /55 96 / 60 12.2  (SW) 8 41.4 mph 202° @ 0321 PM 4.1 or 0.16 0.00 18.3 142.2 163
Amarillo 7SSE 11:59 PM 72 58 60 /55 96 / 60 11.9  (S) 8.1 33 mph 235° @ 0423 PM 3.8 or 0.15 0.00 18.7 143.8 98
Amarillo 9NNE 11:59 PM 72 58 60 /55 96 / 60 11.8  (S) 8.4 35.3 mph 218° @ 0336 PM 3.8 or 0.15 0.00 18.8 146.2 76
Amherst 1NE 11:55 PM 72 58 60 /55 96 / 60 10.3  (SW) 6.8 33.9 mph 228° @ 0150 PM 3.6 or 0.14 0.00 3.1 115.6 40
Andrews 2E 11:59 PM 72 58 60 /55 96 / 60 9.5  (SW) 5.5 30.7 mph 211° @ 0409 PM 3.6 or 0.14 0.00 15.3 107.2 2
Anton 6SSW 11:55 PM 72 58 60 /55 96 / 60 12.1  (W) 8.8 34.7 mph 236° @ 0100 PM 4.1 or 0.16 0.00 14.8 108.5 220
Aspermont 3NE 11:55 PM 72 58 60 /55 96 / 60 9.2  (S) 5.8 25.4 mph 182° @ 0110 PM 2.5 or 0.1 0.00 2.9 104.9 0
Big Bend NP - Castolon 11:59 PM 72 58 60 /55 96 / 60 4.3  (W) 3.1 17.8 mph 304° @ 0127 AM 2.5 or 0.1 0.00 14 89.5 0
Big Bend NP - Persimmon Gap 11:59 PM 72 58 60 /55 96 / 60 9.1  (N) 6.9 35.4 mph 145° @ 1009 PM 4.1 or 0.16 0.00 16.4 105.9 0
Big Lake 1WNW 11:59 PM 72 58 60 /55 96 / 60 9.2  (S) 6.9 24.4 mph 204° @ 1257 PM 2.3 or 0.09 0.00 15.7 106.6 0
Bootleg 11WNW 11:59 PM 72 58 60 /55 96 / 60 17.3  (SW) 12.1 38.9 mph 224° @ 1211 PM 4.6 or 0.18 0.00 17.1 129.7 360
Borger 7E 11:59 PM 72 58 60 /55 96 / 60 15.1  (S) 10.9 38.4 mph 216° @ 0340 PM 4.6 or 0.18 0.00 20.9 164.4 122
Boys Ranch 1WSW 11:59 PM 72 58 60 /55 96 / 60 7.1  (W) 5.8 35.7 mph 234° @ 0347 PM 2.5 or 0.1 0.00 19.9 155.5 53
Brownfield 2S 11:59 PM 72 58 60 /55 96 / 60 11.6  (W) 7.7 32.9 mph 219° @ 0100 PM 3.8 or 0.15 0.00 13.6 97.5 36
Canadian 6E 11:59 PM 72 58 60 /55 96 / 60 12.1  (SE) 8 37.6 mph 162° @ 0359 PM 3.3 or 0.13 0.00 18.8 149.9 39
Caprock Canyons State Park 11:59 PM 72 58 60 /55 96 / 60 15  (W) 10.2 35.2 mph 252° @ 0115 PM 4.8 or 0.19 0.00 18.1 136.9 189
Childress 2NNE 11:55 PM 72 58 60 /55 96 / 60 12.1  (SE) 8 31 mph 173° @ 0410 PM 3 or 0.12 0.00 16.2 123.2 0
Clarendon 2WSW 11:55 PM 72 58 60 /55 96 / 60 9.7  (NE) 5.7 25.7 mph 195° @ 0105 PM 3.3 or 0.13 0.00 17.8 136.7 0
Claude 12SW 11:59 PM 72 58 60 /55 96 / 60 9.2  (SE) 6.4 32 mph 238° @ 0159 PM 2.8 or 0.11 0.00 19.5 149.4 3
Clyde 2WNW 11:59 PM 72 58 60 /55 96 / 60 10.4  (S) 8.2 21 mph 174° @ 0624 AM 1 or 0.04 0.00 6.6 46.7 0
Colorado City 5NW 11:59 PM 72 58 60 /55 96 / 60 8.6  (E) 5.5 22.6 mph 175° @ 0418 PM 2.8 or 0.11 0.00 14.3 101 0
Comanche Springs 11:59 PM 72 58 60 /55 96 / 60 6.8  (W) 5.1 25.2 mph 147° @ 0418 PM 2 or 0.08 0.00 16.2 121.8 0
Coyanosa 2N 11:59 PM 72 58 60 /55 96 / 60 4.1  (S) 2.2 18.6 mph 163° @ 1215 AM 2.3 or 0.09 0.00 19.3 131 0
Crane 1NNW 11:59 PM 72 58 60 /55 96 / 60 7.2  (W) 4.7 28.9 mph 176° @ 1042 PM 2.8 or 0.11 0.00 19.7 134.4 0
Crowell 1E 11:59 PM 72 58 60 /55 96 / 60 10.7  (S) 8 26.1 mph 183° @ 0149 PM 2.3 or 0.09 0.00 16 119.9 0
Dell City 11:59 PM 72 58 60 /55 96 / 60 7.2  (W) 4.8 29.9 mph 259° @ 0257 PM 2.8 or 0.11 0.00 20.2 139 4
Denver City 7WNW 11:55 PM 72 58 60 /55 96 / 60 13.1  (SW) 8.5 35.5 mph 241° @ 1220 PM 3.8 or 0.15 0.00 13.6 97 185
Dimmitt 2NE 11:55 PM 72 58 60 /55 96 / 60 13.5  (W) 10.3 37.1 mph 244° @ 0145 PM 4.1 or 0.16 0.00 17.9 134.4 80
Doole 3WNW 11:59 PM 72 58 60 /55 96 / 60 7.1  (NE) 5.1 23.4 mph 160° @ 0504 PM 1.3 or 0.05 0.00 5.7 39.6 0
Dora NM 2SW 11:55 PM 72 58 60 /55 96 / 60 18.6  (SW) 13.4 36.1 mph 220° @ 1145 AM 4.8 or 0.19 0.00 16.5 120.5 345
Dozier 3W 11:59 PM 72 58 60 /55 96 / 60 6  (N) 3.8 25.8 mph 136° @ 0300 PM 2 or 0.08 0.00 17.1 132.6 0
Earth 9WSW 11:59 PM 72 58 60 /55 96 / 60 12.3  (SW) 10.2 34.1 mph 224° @ 0107 PM 4.1 or 0.16 0.00 18 133.9 45
Endee NM 2SW 11:59 PM 72 58 60 /55 96 / 60 11.7  (SE) 8.6 41.4 mph 223° @ 0252 PM 3.6 or 0.14 0.00 18.7 143.1 268
Estelline 3SSE 11:59 PM 72 58 60 /55 96 / 60 8.5  (SW) 5.6 30 mph 161° @ 0229 PM 2.5 or 0.1 0.00 17.6 133.8 0
Floydada 2NNE 11:55 PM 72 58 60 /55 96 / 60 12.6  (SW) 8.8 36.8 mph 217° @ 0105 PM 4.1 or 0.16 0.00 15.7 116.4 110
Fluvanna 3WNW 11:55 PM 72 58 60 /55 96 / 60 10.3  (SW) 7.3 26.3 mph 220° @ 0305 PM 3.6 or 0.14 0.00 14.2 101.3 0
Fort Chadbourne 11:59 PM 72 58 60 /55 96 / 60 5.7  (E) 3.7 19.3 mph 157° @ 0402 PM 1.5 or 0.06 0.00 12.2 85.6 0
Fort Lancaster 11:59 PM 72 58 60 /55 96 / 60 5.9  (SE) 4 16.2 mph 142° @ 0213 PM 1.8 or 0.07 0.00 13 86.7 0
Fort Lewis CO 11:59 PM 72 58 60 /55 96 / 60 11.1  (NE) 7.4 36.8 mph 246° @ 0247 PM 1 or 0.04 0.00 18.7 151.2 0
Fort McKavett 11:59 PM 72 58 60 /55 96 / 60 6.1  (S) 3.4 21.1 mph 162° @ 0515 PM 1.5 or 0.06 0.00 8.7 58.7 0
Friona 2NE 11:55 PM 72 58 60 /55 96 / 60 13.4  (W) 9.6 34.9 mph 226° @ 0310 PM 4.1 or 0.16 0.00 19.2 144.8 155
Fritch 1WNW 11:59 PM 72 58 60 /55 96 / 60 12.8  (S) 10.4 39.2 mph 230° @ 0335 PM 3.8 or 0.15 0.00 19.8 155.5 149
Gail 2ESE 11:59 PM 72 58 60 /55 96 / 60 8  (W) 4.2 27.4 mph 240° @ 0514 PM 3.3 or 0.13 0.00 14.9 106.4 0
Goodlett 3W 11:55 PM 72 58 60 /55 96 / 60 10.6  (S) 7.5 26.1 mph 176° @ 0235 PM 2.5 or 0.1 0.00 16.6 125.7 0
Goodnight 11:59 PM 72 58 60 /55 96 / 60 11.6  (S) 7.8 35.7 mph 220° @ 0116 PM 3.8 or 0.15 0.00 18 138.5 91
Graham 5SSW 11:59 PM 72 58 60 /55 96 / 60 9.7  (W) 7.2 31.8 mph 235° @ 0450 PM 3.6 or 0.14 0.00 14.4 103.8 3
Guadalupe Mtns Natl Park 11:59 PM 72 58 60 /55 96 / 60 15.4  (SE) 11.4 54.8 mph 227° @ 1217 PM 4.1 or 0.16 0.00 18.4 124.4 140
Guthrie 10WSW 11:59 PM 72 58 60 /55 96 / 60 9.9  (SW) 6.4 27.4 mph 183° @ 0155 PM 3 or 0.12 0.00 15.8 116.4 0
Hackberry 2SSE 11:59 PM 72 58 60 /55 96 / 60 10.3  (N) 7.8 27.9 mph 191° @ 1023 PM 2.8 or 0.11 0.00 16 119.2 0
Happy 1E 11:59 PM 72 58 60 /55 96 / 60 14.4  (SW) 11 37.6 mph 223° @ 1233 PM 4.6 or 0.18 0.00 19.2 145.9 211
Hart 3N 11:55 PM 72 58 60 /55 96 / 60 11.3  (SW) 7.3 32.8 mph 240° @ 0200 PM 3.8 or 0.15 0.00 18 134.9 35
Haskell 1NW 11:55 PM 72 58 60 /55 96 / 60 10  (S) 7.9 28.7 mph 197° @ 0250 PM 2 or 0.08 0.00 10.8 78.6 0
Hefner 1SW 11:59 PM 72 58 60 /55 96 / 60 12  (SE) 8.5 28.5 mph 168° @ 0325 PM 2 or 0.08 0.00 11.5 85 0
Hereford 2NW 11:55 PM 72 58 60 /55 96 / 60 12.7  (W) 9.3 33.5 mph 241° @ 0225 PM 4.1 or 0.16 0.00 18.6 141 135
Hobbs NM 5NW 11:59 PM 72 58 60 /55 96 / 60 9.5  (S) 6 27.3 mph 245° @ 1158 AM 3.3 or 0.13 0.00 13.5 95.8 3
Jayton 1SSE 11:55 PM 72 58 60 /55 96 / 60 8.5  (S) 5.6 26.2 mph 205° @ 0110 PM 2.8 or 0.11 0.00 15.3 111.3 0
Junction 1SSW 11:59 PM 72 58 60 /55 96 / 60 4.8  (S) 3.8 21.9 mph 190° @ 0257 PM 1.3 or 0.05 0.00 6.6 43.7 0
Kent 9E 11:59 PM 72 58 60 /55 96 / 60 7.7  (SW) 4.9 30.8 mph 242° @ 0151 PM 3 or 0.12 0.00 19.5 130.1 26
Knox City 3NW 11:59 PM 72 58 60 /55 96 / 60 11.1  (S) 7.6 27.4 mph 172° @ 0514 PM 2.3 or 0.09 0.00 14.5 106.5 0
Lake Alan Henry 1NW 11:59 PM 72 58 60 /55 96 / 60 7.5  (SW) 4.5 25.8 mph 206° @ 0418 PM 3 or 0.12 0.00 14.9 107.3 0
Lake McClellan 2NW 11:59 PM 72 58 60 /55 96 / 60 12.6  (S) 9.2 36 mph 190° @ 0222 PM 3.8 or 0.15 0.00 18.2 140.6 52
Lamesa 2SE 11:55 PM 72 58 60 /55 96 / 60 7.7  (S) 5 29.1 mph 224° @ 0415 PM 3 or 0.12 0.00 15.4 109.2 5
Lesley 2S 11:59 PM 72 58 60 /55 96 / 60 8  (SE) 5.4 28.9 mph 212° @ 0257 PM 3.6 or 0.14 0.00 17.7 135.6 6
Levelland 4S 11:59 PM 72 58 60 /55 96 / 60 13.6  (SW) 9.9 38.4 mph 234° @ 0127 PM 4.3 or 0.17 0.00 14.7 106.7 196
Lomax 1SSE 11:59 PM 72 58 60 /55 96 / 60 8.2  (S) 5.7 26.8 mph 217° @ 0346 PM 3.3 or 0.13 0.00 18.6 130.2 0
Lubbock 3WNW TTU 11:55 PM 72 58 60 /55 96 / 60 9.5  (SW) 5.2 31.6 mph 220° @ 0245 PM 3.3 or 0.13 0.00 13.4 98.1 10
McAdoo 3NNW 11:59 PM 72 58 60 /55 96 / 60 11.4  (SW) 7.3 30.7 mph 209° @ 0415 PM 3.6 or 0.14 0.00 14.6 107.4 6
McCamey 1SSW 11:59 PM 72 58 60 /55 96 / 60 6.3  (N) 5.1 18.1 mph 139° @ 1121 PM 2.5 or 0.1 0.00 16.3 110.2 0
McLean 1E 11:55 PM 72 58 60 /55 96 / 60 11  (SE) 8.2 32.5 mph 359° @ 1155 PM 2.8 or 0.11 0.00 18.8 145.7 0
Memphis 1NE 11:59 PM 72 58 60 /55 96 / 60 5.8  (N) 4 30.7 mph 152° @ 0511 PM 2.3 or 0.09 0.00 17.9 137.6 0
Menard 2NW 11:59 PM 72 58 60 /55 96 / 60 6.8  (N) 5 21.4 mph 189° @ 0512 PM 1.5 or 0.06 0.00 7.5 51 0
Mertzon 3NNE 11:59 PM 72 58 60 /55 96 / 60 7.4  (S) 4.7 25.6 mph 194° @ 0110 PM 2 or 0.08 0.00 13.6 92.5 0
Morton 1ENE 11:55 PM 72 58 60 /55 96 / 60 13.8  (SW) 9.5 34.2 mph 217° @ 0420 PM M or M 0.00 16.1 117.5 110
Muleshoe 2SSW 11:55 PM 72 58 60 /55 96 / 60 10.9  (SW) 7.1 32.5 mph 244° @ 0315 PM 3.6 or 0.14 0.00 19 141.2 40
New Home 11:59 PM 72 58 60 /55 96 / 60 10.9  (W) 3.7 31.1 mph 228° @ 0146 PM 3.8 or 0.15 0.00 14.1 101.9 76
Northfield 1S 11:55 PM 72 58 60 /55 96 / 60 10  (S) 6.2 31.6 mph 195° @ 0450 PM 3.6 or 0.14 0.00 15.9 119.7 0
O'Donnell 1N 11:55 PM 72 58 60 /55 96 / 60 9.8  (S) 5.6 33.5 mph 225° @ 0400 PM 3.8 or 0.15 0.00 2.4 87.3 30
Odell 4ENE 11:59 PM 72 58 60 /55 96 / 60 12.6  (SE) 9.6 31.6 mph 174° @ 0430 PM 1.8 or 0.07 0.00 13.3 101.1 0
Olton 6S 11:55 PM 72 58 60 /55 96 / 60 12.9  (SW) 8.2 31.1 mph 221° @ 0145 PM 4.3 or 0.17 0.00 15.8 117.1 15
Paducah 10SW 11:55 PM 72 58 60 /55 96 / 60 11.7  (S) 6.6 26.1 mph 197° @ 0445 PM 3.3 or 0.13 0.00 2.9 107.4 0
Palo Duro 4E (JA Ranch) 11:59 PM 72 58 60 /55 96 / 60 9.6  (W) 6 31.7 mph 196° @ 0102 PM 3.8 or 0.15 0.00 17.8 136.4 8
Palo Duro Canyon SP Floor 11:59 PM 72 58 60 /55 96 / 60 5  (N) 2.5 27.6 mph 351° @ 1153 PM 2 or 0.08 0.00 17.9 137.8 0
Palo Duro Canyon State Park Rim 11:59 PM 72 58 60 /55 96 / 60 9.5  (S) 5.1 32.1 mph 344° @ 1150 PM 3.3 or 0.13 0.00 19.2 146.7 5
Palo Duro Reservoir 1NW 11:59 PM 72 58 60 /55 96 / 60 16.6  (S) 11.5 41.3 mph 215° @ 0302 PM 4.8 or 0.19 0.00 19.4 156.7 365
Pampa 2E 11:55 PM 72 58 60 /55 96 / 60 12.1  (SE) 7.7 33.5 mph 338° @ 1050 PM 3.6 or 0.14 0.00 18.7 146.2 5
Panhandle 1SSW 11:59 PM 72 58 60 /55 96 / 60 12.9  (S) 9.2 39.1 mph 212° @ 0106 PM 4.1 or 0.16 0.00 19.8 153.4 171
Plains 3N 11:55 PM 72 58 60 /55 96 / 60 12.7  (W) 9.1 34.6 mph 238° @ 0100 PM 3.8 or 0.15 0.00 14.4 103.2 165
Plainview 1S 11:59 PM 72 58 60 /55 96 / 60 10.3  (W) 6.9 38.4 mph 240° @ 0212 PM 3.6 or 0.14 0.00 17.2 127.9 64
Post 1NE 11:59 PM 72 58 60 /55 96 / 60 8.8  (SW) 5.7 27.4 mph 233° @ 0516 PM 3.6 or 0.14 0.00 13.8 100.3 0
Ralls 1SE 11:59 PM 72 58 60 /55 96 / 60 11.1  (SW) 7.2 32.9 mph 207° @ 0238 PM 3.8 or 0.15 0.00 14 102.6 107
Reese Center 11:59 PM 72 58 60 /55 96 / 60 13.1  (SW) 8.9 44.9 mph 223° @ 0140 PM 4.3 or 0.17 0.00 14.7 107.1 254
Roaring Springs 3N 11:59 PM 72 58 60 /55 96 / 60 12.2  (S) 8.1 30.7 mph 195° @ 0331 PM 3.8 or 0.15 0.00 15.2 113.1 3
Romero 11SSW 11:59 PM 72 58 60 /55 96 / 60 12  (W) 8.3 41.8 mph 242° @ 0212 PM 3.6 or 0.14 0.00 19.1 149.1 234
Rotan 5W 11:59 PM 72 58 60 /55 96 / 60 11.6  (SW) 7.4 25.1 mph 188° @ 1253 PM 3 or 0.12 0.00 16.8 120.9 0
San Angelo 7NW 11:55 PM 72 58 60 /55 96 / 60 5.4  (E) 3.2 24.5 mph 166° @ 0355 PM 1.8 or 0.07 0.00 11.1 76.6 0
Seagraves 1SW 11:55 PM 72 58 60 /55 96 / 60 9.2  (S) 5.3 27.2 mph 209° @ 0325 PM 3.3 or 0.13 0.00 2.5 87.7 0
Segovia 7SSW 11:59 PM 72 58 60 /55 96 / 60 7.5  (SE) 5.5 23.1 mph 189° @ 0345 PM 1.3 or 0.05 0.00 5.9 39.3 0
Seminole 2NNE 11:55 PM 72 58 60 /55 96 / 60 8.8  (SW) 5.8 27 mph 231° @ 0535 PM 3.3 or 0.13 0.00 2.6 92.3 0
Seymour 3NW 11:55 PM 72 58 60 /55 96 / 60 10  (SE) 7.4 27.8 mph 166° @ 0120 PM 1.8 or 0.07 0.00 7.3 54.3 0
Sierra Blanca 1SSE 11:59 PM 72 58 60 /55 96 / 60 7.9  (N) 6.2 29.2 mph 275° @ 0304 PM 3 or 0.12 0.00 19.4 129.2 1
Silverton 7ESE 11:55 PM 72 58 60 /55 96 / 60 15  (SW) 9.9 34.6 mph 212° @ 0210 PM 4.8 or 0.19 0.00 15.6 117.1 205
Slaton 2NE 11:59 PM 72 58 60 /55 96 / 60 12.2  (SW) 8.4 31.8 mph 201° @ 0326 PM 3.8 or 0.15 0.00 14.9 108.5 46
Smyer 11:59 PM 72 58 60 /55 96 / 60 13.4  (S) 10 34.7 mph 242° @ 0107 PM 4.3 or 0.17 0.00 15.2 111.2 205
Snyder 3E 11:55 PM 72 58 60 /55 96 / 60 10  (SE) 4.5 24 mph 178° @ 0300 PM 3 or 0.12 0.00 13.4 95.2 0
Snyder 3SSW 11:59 PM 72 58 60 /55 96 / 60 9.1  (S) 6.5 24.1 mph 166° @ 0416 PM 2.8 or 0.11 0.00 14.6 103.8 0
South Plains 3ENE 11:59 PM 72 58 60 /55 96 / 60 12.2  (W) 7.8 35.1 mph 215° @ 0151 PM 4.1 or 0.16 0.00 16.5 123 101
Spur 1W 11:55 PM 72 58 60 /55 96 / 60 7.4  (NW) 4.2 25.6 mph 220° @ 0415 PM 2.8 or 0.11 0.00 13.9 102 0
St. Lawrence 5SW 11:59 PM 72 58 60 /55 96 / 60 9.4  (S) 6.5 27.4 mph 175° @ 1042 PM 3 or 0.12 0.00 18.7 128.7 0
Stamford 5ESE 11:59 PM 72 58 60 /55 96 / 60 11  (S) 8.3 29.7 mph 195° @ 0334 PM 2 or 0.08 0.00 9.1 65.6 0
Sterling City 4WSW 11:59 PM 72 58 60 /55 96 / 60 7.6  (SE) 5.5 25.9 mph 181° @ 1112 PM 2.3 or 0.09 0.00 12.1 83.7 0
Stinnett 1NNW 11:59 PM 72 58 60 /55 96 / 60 15.3  (S) 9.6 39.2 mph 337° @ 0957 PM 4.6 or 0.18 0.00 19.3 152.7 186
Stratford 4WNW 11:59 PM 72 58 60 /55 96 / 60 19.4  (W) 12.9 47.9 mph 231° @ 0132 PM 4.8 or 0.19 0.00 20.2 162 457
Sundown 8WSW 11:55 PM 72 58 60 /55 96 / 60 14.9  (W) 9.3 39.7 mph 234° @ 1205 PM 4.6 or 0.18 0.00 12.1 87.3 235
Sweetwater 11SW 11:59 PM 72 58 60 /55 96 / 60 11.3  (SE) 8.5 27.7 mph 185° @ 0129 PM 2.3 or 0.09 0.00 15.7 110.6 0
Tahoka 3NNE 11:59 PM 72 58 60 /55 96 / 60 9.2  (S) 5.3 32.2 mph 229° @ 0315 PM 3.6 or 0.14 0.00 13.9 100 12
Tarzan 2WNW 11:59 PM 72 58 60 /55 96 / 60 7.7  (W) 4.6 27.9 mph 225° @ 0359 PM 3 or 0.12 0.00 16 112.6 5
Tatum NM 2SW 11:55 PM 72 58 60 /55 96 / 60 16.5  (SW) 9.9 39.9 mph 229° @ 1210 PM 5.1 or 0.2 0.00 17.5 125.6 420
Throckmorton 1SW 11:59 PM 72 58 60 /55 96 / 60 8.8  (S) 4.6 25.9 mph 165° @ 0343 PM 1.3 or 0.05 0.00 6.5 47.8 0
Truscott 2SE 11:59 PM 72 58 60 /55 96 / 60 12.7  (S) 9.1 28.9 mph 203° @ 0139 PM 2.5 or 0.1 0.00 16.1 119.5 0
Tulia 2ENE 11:55 PM 72 58 60 /55 96 / 60 14.1  (SW) 10.2 33.2 mph 222° @ 0205 PM 4.6 or 0.18 0.00 15 113.4 20
Turkey 2WSW 11:55 PM 72 58 60 /55 96 / 60 13.9  (SW) 9.7 34.6 mph 195° @ 0405 PM 4.8 or 0.19 0.00 14.5 109.2 175
Umbarger 3NNE 11:59 PM 72 58 60 /55 96 / 60 13.9  (SW) 9.8 34.6 mph 235° @ 0353 PM 4.3 or 0.17 0.00 18.7 142.7 151
Van Horn 3ENE 11:59 PM 72 58 60 /55 96 / 60 9.2  (SW) 5.7 29.9 mph 215° @ 0226 PM 3.6 or 0.14 0.00 20.7 138 2
Vega 4E 11:59 PM 72 58 60 /55 96 / 60 13.7  (S) 9.9 42.7 mph 19° @ 1124 PM 4.1 or 0.16 0.00 20 154.2 215
Vigo Park 11:59 PM 72 58 60 /55 96 / 60 13.7  (S) 8.4 35.2 mph 204° @ 0100 PM 4.6 or 0.18 0.00 16 120.9 116
Wall 2E 11:59 PM 72 58 60 /55 96 / 60 6  (S) 4.3 24 mph 204° @ 0334 PM 1.5 or 0.06 0.00 7.8 53.6 0
Weinert 2NNE 11:59 PM 72 58 60 /55 96 / 60 12.6  (S) 9.8 28.7 mph 182° @ 0550 PM 2.3 or 0.09 0.00 10.8 79.1 0
Welch 11:59 PM 72 58 60 /55 96 / 60 8.5  (SW) 5.4 32.4 mph 225° @ 0322 PM 3.6 or 0.14 0.00 14.3 102.4 12
Wellington 6SE 11:59 PM 72 58 60 /55 96 / 60 10  (SE) 6.8 30.7 mph 168° @ 0319 PM 2.5 or 0.1 0.00 17.5 135 0
White River Lake 6NW 11:59 PM 72 58 60 /55 96 / 60 8.5  (SW) 5.3 31.8 mph 208° @ 0415 PM 3.3 or 0.13 0.00 14.5 106.3 7
Wolfforth 6SSW 11:59 PM 72 58 60 /55 96 / 60 12.2  (W) 8 37.3 mph 229° @ 1254 PM 4.3 or 0.17 0.00 14.5 105.1 153

WestTexas Mesonet Home    Site Map/Menu  National Weather Service Lubbock   Soil Data   Latest Observation Page   Previous  Date   Next Last